Arklow Rock — PBZM — position and weather

sailwx.info

Track history (hours):
 
Tides and Currents Weather Stations Pressure Air Temp Water Temp Dewpoint Dewpoint Depression Visibility Wind Speed Wind Dir Waves Ship Positions

Arklow Rock

Last reported at 2015-Jan-31 14:31 UTC. Time now 2015-Jan-31 14:40 UTC.
Position N 51°22' E 004°17'.

Length 90 m; draft 4.5 m.

Type: Cargo ship. MMSI: 246002000.

Date/timePositionNaut miles runAvg speedWind from/ knotsBaromVisibWave heightAir tempDewpointWater temp
2015-Jan-31 14:31N 51°22' E 004°17'0 0.0
2015-Jan-31 13:28N 51°22' E 004°17'0 0.0
2015-Jan-31 12:19N 51°22' E 004°17'0 0.0
2015-Jan-31 11:31N 51°22' E 004°17'0 0.0
2015-Jan-31 10:25N 51°22' E 004°17'0 0.0
2015-Jan-31 09:31N 51°22' E 004°17'0 0.0
2015-Jan-31 08:25N 51°22' E 004°17'0 0.0
2015-Jan-31 07:28N 51°22' E 004°17'0 0.0
2015-Jan-31 06:19N 51°22' E 004°17'0 0.0
2015-Jan-31 05:31N 51°22' E 004°17'0 0.0
2015-Jan-31 04:31N 51°22' E 004°17'0 0.0
2015-Jan-31 03:25N 51°22' E 004°17'0 0.0
2015-Jan-31 02:34N 51°22' E 004°17'0 0.0
2015-Jan-31 01:34N 51°22' E 004°17'0 0.0
2015-Jan-31 00:30N 51°22' E 004°17'0 0.0
2015-Jan-30 23:24N 51°22' E 004°17'0 0.0
2015-Jan-30 22:33N 51°22' E 004°17'0 0.0
2015-Jan-30 21:30N 51°22' E 004°17'0 0.0
2015-Jan-30 20:33N 51°22' E 004°17'0 0.0
2015-Jan-30 19:30N 51°22' E 004°17'0 0.1
2015-Jan-30 18:33N 51°22' E 004°17'5 4.7
2015-Jan-30 17:33N 51°17' E 004°20'3 3.2
2015-Jan-30 16:33N 51°15' E 004°24'0 0.0
2015-Jan-30 15:33N 51°15' E 004°24'0 0.0
2015-Jan-30 14:33N 51°15' E 004°24'0 0.0
2015-Jan-30 13:33N 51°15' E 004°24'0 0.0
2015-Jan-30 12:33N 51°15' E 004°24'0 0.0
2015-Jan-30 11:33N 51°15' E 004°24'0 0.0
2015-Jan-30 10:32N 51°15' E 004°24'0 0.0
2015-Jan-30 09:32N 51°15' E 004°24'0 0.0
2015-Jan-30 08:32N 51°15' E 004°24'0 0.0
2015-Jan-30 07:32N 51°15' E 004°24'1 0.9
2015-Jan-30 06:33N 51°15' E 004°24'4 3.8
2015-Jan-30 05:34N 51°18' E 004°20'4 3.3
2015-Jan-30 04:30N 51°21' E 004°17'0 0.1
2015-Jan-30 03:33N 51°21' E 004°17'4 3.6
2015-Jan-30 02:33N 51°23' E 004°13'7 6.8
2015-Jan-30 01:33N 51°24' E 004°02'7 7.0
2015-Jan-30 00:33N 51°21' E 003°52'3 3.0
2015-Jan-29 23:33N 51°18' E 003°50'8 8.4
2015-Jan-29 22:33N 51°10' E 003°47'0 0.0
2015-Jan-29 21:33N 51°10' E 003°47'0 0.0
2015-Jan-29 20:33N 51°10' E 003°47'0 0.0
2015-Jan-29 19:33N 51°10' E 003°47'0 0.0
2015-Jan-29 18:33N 51°10' E 003°47'0 0.0
2015-Jan-29 17:33N 51°10' E 003°47'0 0.0
2015-Jan-29 16:27N 51°10' E 003°47'0 0.0
2015-Jan-29 15:24N 51°10' E 003°47'0 0.0
2015-Jan-29 14:27N 51°10' E 003°47'0 0.0
2015-Jan-29 13:30N 51°10' E 003°47'0 0.0
2015-Jan-29 12:33N 51°10' E 003°47'0 0.0
2015-Jan-29 11:33N 51°10' E 003°47'0 0.0
2015-Jan-29 10:30N 51°10' E 003°47'0 0.0
2015-Jan-29 09:33N 51°10' E 003°47'0 0.0
2015-Jan-29 08:33N 51°10' E 003°47'0 0.0
2015-Jan-29 07:33N 51°10' E 003°47'0 0.0
2015-Jan-29 06:33N 51°10' E 003°47'0 0.0
2015-Jan-29 05:33N 51°10' E 003°47'0 0.0
2015-Jan-29 04:33N 51°10' E 003°47'0 0.0
2015-Jan-29 03:33N 51°10' E 003°47'0 0.0
2015-Jan-29 02:33N 51°10' E 003°47'0 0.0
2015-Jan-29 01:33N 51°10' E 003°47'0 0.0
2015-Jan-29 00:33N 51°10' E 003°47'0 0.0
2015-Jan-28 23:33N 51°10' E 003°47'0 0.0
2015-Jan-28 22:33N 51°10' E 003°47'0 0.0
2015-Jan-28 21:33N 51°10' E 003°47'0 0.0
2015-Jan-28 20:33N 51°10' E 003°47'0 0.0
2015-Jan-28 19:33N 51°10' E 003°47'0 0.0
2015-Jan-28 18:30N 51°10' E 003°47'1 1.5
2015-Jan-28 17:33N 51°11' E 003°48'6 5.8
2015-Jan-28 16:33N 51°17' E 003°50'3 3.2
2015-Jan-28 15:33N 51°20' E 003°49'7 6.6
2015-Jan-28 14:34N 51°25' E 003°42'9 9.2
2015-Jan-28 13:34N 51°25' E 003°28'10 9.7
2015-Jan-28 12:32N 51°24' E 003°12'1010.4
2015-Jan-28 11:33N 51°22' E 002°56'9 8.8
2015-Jan-28 10:33N 51°22' E 002°42'5 5.1
2015-Jan-28 09:33N 51°22' E 002°33'5 4.8
2015-Jan-28 08:33N 51°21' E 002°26'5 4.9
2015-Jan-28 07:33N 51°18' E 002°19'9 9.6
2015-Jan-28 06:33N 51°13' E 002°06'1110.9
2015-Jan-28 05:33N 51°08' E 001°51'1110.7
2015-Jan-28 04:33N 51°00' E 001°39'87 9.6
2015-Jan-27 19:30N 50°31' W 000°30'13 9.6
2015-Jan-27 18:12N 50°29' W 000°49'9 9.4
2015-Jan-27 17:12N 50°27' W 001°03'910.5
2015-Jan-27 16:18N 50°25' W 001°18'2712.6
2015-Jan-27 14:08N 50°20' W 001°60'4013.1
2015-Jan-27 11:04N 50°12' W 003°01'612.2
2015-Jan-27 10:33N 50°11' W 003°11'1211.9
2015-Jan-27 09:31N 50°08' W 003°30'156 7.0
2015-Jan-26 11:12N 52°15' W 005°55'7 9.6
2015-Jan-26 10:28N 52°22' W 005°56'910.2
2015-Jan-26 09:33N 52°31' W 005°58'  
2015-Jan-23 00:32N 53°33' W 003°22'9 9.3
2015-Jan-22 23:33N 53°31' W 003°07'9 8.6
2015-Jan-22 22:33N 53°24' W 003°00'5 4.7
2015-Jan-22 21:33N 53°19' W 002°57'1 1.4
2015-Jan-22 20:33N 53°18' W 002°55'  
Track history (hours):
 
Tides and Currents Weather Stations Pressure Air Temp Water Temp Dewpoint Dewpoint Depression Visibility Wind Speed Wind Dir Waves Ship Positions

Arklow Rock

Last reported at 2015-Jan-31 14:31 UTC. Time now 2015-Jan-31 14:40 UTC.
Position N 51°22' E 004°17'.

Length 90 m; draft 4.5 m.

Type: Cargo ship. MMSI: 246002000.

Date/timePositionNaut miles runAvg speedWind from/ knotsBaromVisibWave heightAir tempDewpointWater temp
2015-Jan-31 14:31N 51°22' E 004°17'0 0.0
2015-Jan-31 13:28N 51°22' E 004°17'0 0.0
2015-Jan-31 12:19N 51°22' E 004°17'0 0.0
2015-Jan-31 11:31N 51°22' E 004°17'0 0.0
2015-Jan-31 10:25N 51°22' E 004°17'0 0.0
2015-Jan-31 09:31N 51°22' E 004°17'0 0.0
2015-Jan-31 08:25N 51°22' E 004°17'0 0.0
2015-Jan-31 07:28N 51°22' E 004°17'0 0.0
2015-Jan-31 06:19N 51°22' E 004°17'0 0.0
2015-Jan-31 05:31N 51°22' E 004°17'0 0.0
2015-Jan-31 04:31N 51°22' E 004°17'0 0.0
2015-Jan-31 03:25N 51°22' E 004°17'0 0.0
2015-Jan-31 02:34N 51°22' E 004°17'0 0.0
2015-Jan-31 01:34N 51°22' E 004°17'0 0.0
2015-Jan-31 00:30N 51°22' E 004°17'0 0.0
2015-Jan-30 23:24N 51°22' E 004°17'0 0.0
2015-Jan-30 22:33N 51°22' E 004°17'0 0.0
2015-Jan-30 21:30N 51°22' E 004°17'0 0.0
2015-Jan-30 20:33N 51°22' E 004°17'0 0.0
2015-Jan-30 19:30N 51°22' E 004°17'0 0.1
2015-Jan-30 18:33N 51°22' E 004°17'5 4.7
2015-Jan-30 17:33N 51°17' E 004°20'3 3.2
2015-Jan-30 16:33N 51°15' E 004°24'0 0.0
2015-Jan-30 15:33N 51°15' E 004°24'0 0.0
2015-Jan-30 14:33N 51°15' E 004°24'0 0.0
2015-Jan-30 13:33N 51°15' E 004°24'0 0.0
2015-Jan-30 12:33N 51°15' E 004°24'0 0.0
2015-Jan-30 11:33N 51°15' E 004°24'0 0.0
2015-Jan-30 10:32N 51°15' E 004°24'0 0.0
2015-Jan-30 09:32N 51°15' E 004°24'0 0.0
2015-Jan-30 08:32N 51°15' E 004°24'0 0.0
2015-Jan-30 07:32N 51°15' E 004°24'1 0.9
2015-Jan-30 06:33N 51°15' E 004°24'4 3.8
2015-Jan-30 05:34N 51°18' E 004°20'4 3.3
2015-Jan-30 04:30N 51°21' E 004°17'0 0.1
2015-Jan-30 03:33N 51°21' E 004°17'4 3.6
2015-Jan-30 02:33N 51°23' E 004°13'7 6.8
2015-Jan-30 01:33N 51°24' E 004°02'7 7.0
2015-Jan-30 00:33N 51°21' E 003°52'3 3.0
2015-Jan-29 23:33N 51°18' E 003°50'8 8.4
2015-Jan-29 22:33N 51°10' E 003°47'0 0.0
2015-Jan-29 21:33N 51°10' E 003°47'0 0.0
2015-Jan-29 20:33N 51°10' E 003°47'0 0.0
2015-Jan-29 19:33N 51°10' E 003°47'0 0.0
2015-Jan-29 18:33N 51°10' E 003°47'0 0.0
2015-Jan-29 17:33N 51°10' E 003°47'0 0.0
2015-Jan-29 16:27N 51°10' E 003°47'0 0.0
2015-Jan-29 15:24N 51°10' E 003°47'0 0.0
2015-Jan-29 14:27N 51°10' E 003°47'0 0.0
2015-Jan-29 13:30N 51°10' E 003°47'0 0.0
2015-Jan-29 12:33N 51°10' E 003°47'0 0.0
2015-Jan-29 11:33N 51°10' E 003°47'0 0.0
2015-Jan-29 10:30N 51°10' E 003°47'0 0.0
2015-Jan-29 09:33N 51°10' E 003°47'0 0.0
2015-Jan-29 08:33N 51°10' E 003°47'0 0.0
2015-Jan-29 07:33N 51°10' E 003°47'0 0.0
2015-Jan-29 06:33N 51°10' E 003°47'0 0.0
2015-Jan-29 05:33N 51°10' E 003°47'0 0.0
2015-Jan-29 04:33N 51°10' E 003°47'0 0.0
2015-Jan-29 03:33N 51°10' E 003°47'0 0.0
2015-Jan-29 02:33N 51°10' E 003°47'0 0.0
2015-Jan-29 01:33N 51°10' E 003°47'0 0.0
2015-Jan-29 00:33N 51°10' E 003°47'0 0.0
2015-Jan-28 23:33N 51°10' E 003°47'0 0.0
2015-Jan-28 22:33N 51°10' E 003°47'0 0.0
2015-Jan-28 21:33N 51°10' E 003°47'0 0.0
2015-Jan-28 20:33N 51°10' E 003°47'0 0.0
2015-Jan-28 19:33N 51°10' E 003°47'0 0.0
2015-Jan-28 18:30N 51°10' E 003°47'1 1.5
2015-Jan-28 17:33N 51°11' E 003°48'6 5.8
2015-Jan-28 16:33N 51°17' E 003°50'3 3.2
2015-Jan-28 15:33N 51°20' E 003°49'7 6.6
2015-Jan-28 14:34N 51°25' E 003°42'9 9.2
2015-Jan-28 13:34N 51°25' E 003°28'10 9.7
2015-Jan-28 12:32N 51°24' E 003°12'1010.4
2015-Jan-28 11:33N 51°22' E 002°56'9 8.8
2015-Jan-28 10:33N 51°22' E 002°42'5 5.1
2015-Jan-28 09:33N 51°22' E 002°33'5 4.8
2015-Jan-28 08:33N 51°21' E 002°26'5 4.9
2015-Jan-28 07:33N 51°18' E 002°19'9 9.6
2015-Jan-28 06:33N 51°13' E 002°06'1110.9
2015-Jan-28 05:33N 51°08' E 001°51'1110.7
2015-Jan-28 04:33N 51°00' E 001°39'87 9.6
2015-Jan-27 19:30N 50°31' W 000°30'13 9.6
2015-Jan-27 18:12N 50°29' W 000°49'9 9.4
2015-Jan-27 17:12N 50°27' W 001°03'910.5
2015-Jan-27 16:18N 50°25' W 001°18'2712.6
2015-Jan-27 14:08N 50°20' W 001°60'4013.1
2015-Jan-27 11:04N 50°12' W 003°01'612.2
2015-Jan-27 10:33N 50°11' W 003°11'1211.9
2015-Jan-27 09:31N 50°08' W 003°30'156 7.0
2015-Jan-26 11:12N 52°15' W 005°55'7 9.6
2015-Jan-26 10:28N 52°22' W 005°56'910.2
2015-Jan-26 09:33N 52°31' W 005°58'  
2015-Jan-23 00:32N 53°33' W 003°22'9 9.3
2015-Jan-22 23:33N 53°31' W 003°07'9 8.6
2015-Jan-22 22:33N 53°24' W 003°00'5 4.7
2015-Jan-22 21:33N 53°19' W 002°57'1 1.4
2015-Jan-22 20:33N 53°18' W 002°55'  

Dump ship's entire track history